Time;durP1;ratioP1;P1;durP2;ratioP2;P2;SDS_P1;SDS_P2;PMS_P1;PMS_P2;Temp;Humidity;BMP_temperature;BMP_pressure;BME280_temperature;BME280_humidity;BME280_pressure;Samples;Min_cycle;Max_cycle;Signal;HPM_P1;HPM_P2
2021/11/12 00:14:11;;;;;;;72.30;14.30;;;3.10;97.90;;;;;;5052087;28;20232;-90
2021/11/12 00:16:37;;;;;;;58.50;13.43;;;3.00;97.90;;;;;;5047425;28;20295;-91
2021/11/12 00:19:05;;;;;;;30.93;12.00;;;3.00;98.10;;;;;;5053311;28;20563;-90
2021/11/12 00:21:32;;;;;;;16.90;11.23;;;3.10;98.30;;;;;;5052481;28;20680;-90
2021/11/12 00:24:02;;;;;;;56.17;13.63;;;3.30;98.20;;;;;;5057972;28;20226;-90
2021/11/12 00:26:29;;;;;;;44.33;12.77;;;3.30;97.70;;;;;;5051629;28;20236;-91
2021/11/12 00:28:58;;;;;;;32.90;12.87;;;3.20;97.70;;;;;;5053631;28;20285;-90
2021/11/12 00:31:34;;;;;;;54.17;13.43;;;3.20;97.80;;;;;;5053200;28;20198;-91
2021/11/12 00:36:48;;;;;;;120.37;15.10;;;3.10;98.30;;;;;;5050874;28;20226;-91
2021/11/12 00:39:21;;;;;;;96.27;16.07;;;3.10;98.20;;;;;;5054140;28;20197;-90
2021/11/12 00:41:52;;;;;;;45.73;12.93;;;3.10;98.30;;;;;;5044982;28;20635;-91
2021/11/12 00:44:24;;;;;;;93.10;15.47;;;3.20;98.30;;;;;;5052829;28;20210;-90
2021/11/12 00:46:55;;;;;;;14.80;11.93;;;3.20;98.20;;;;;;5056533;28;20233;-91
2021/11/12 00:49:25;;;;;;;25.47;11.80;;;3.20;98.20;;;;;;5047988;28;20206;-91
2021/11/12 00:51:53;;;;;;;73.00;13.93;;;3.20;98.10;;;;;;5040046;28;20692;-91
2021/11/12 00:54:21;;;;;;;25.50;12.03;;;3.30;97.80;;;;;;5047723;28;20202;-89
2021/11/12 00:56:49;;;;;;;31.40;11.63;;;3.20;97.90;;;;;;5056011;28;20225;-91
2021/11/12 00:59:18;;;;;;;90.73;13.83;;;3.20;98.10;;;;;;5056130;28;20201;-90
2021/11/12 01:01:46;;;;;;;31.30;11.83;;;3.20;97.50;;;;;;5045381;28;20694;-89
2021/11/12 01:04:19;;;;;;;32.17;12.17;;;3.20;98.00;;;;;;5061366;28;20248;-91
2021/11/12 01:06:46;;;;;;;59.93;12.30;;;3.10;97.90;;;;;;5062184;28;20221;-90
2021/11/12 01:09:16;;;;;;;18.17;11.30;;;3.10;98.10;;;;;;5056901;28;20747;-89
2021/11/12 01:11:45;;;;;;;17.77;11.57;;;3.20;98.20;;;;;;5055611;28;20699;-89
2021/11/12 01:14:13;;;;;;;23.77;11.77;;;3.40;98.10;;;;;;5056773;28;20679;-89
2021/11/12 01:16:40;;;;;;;18.70;11.77;;;3.40;97.80;;;;;;5056156;28;20237;-89
2021/11/12 01:19:09;;;;;;;24.57;11.40;;;3.50;97.70;;;;;;5056483;28;20558;-90
2021/11/12 01:21:38;;;;;;;85.23;13.67;;;3.50;97.50;;;;;;5052818;28;20234;-89
2021/11/12 01:24:06;;;;;;;27.80;12.10;;;3.30;97.30;;;;;;5056436;28;20225;-89
2021/11/12 01:26:33;;;;;;;54.20;13.07;;;3.30;97.80;;;;;;5050791;28;20764;-89
2021/11/12 01:29:00;;;;;;;70.50;13.37;;;3.30;97.70;;;;;;5056946;28;20197;-91
2021/11/12 01:31:30;;;;;;;50.67;13.30;;;3.20;97.60;;;;;;5060272;28;20231;-90
2021/11/12 01:34:01;;;;;;;12.27;10.37;;;3.10;97.80;;;;;;5056533;28;20251;-89
2021/11/12 01:36:32;;;;;;;35.57;11.97;;;3.20;98.40;;;;;;5056380;28;20312;-90
2021/11/12 01:39:06;;;;;;;14.17;10.30;;;3.30;97.90;;;;;;5054508;28;20202;-91
2021/11/12 01:41:34;;;;;;;21.80;11.73;;;3.40;97.90;;;;;;5053746;28;20249;-91
2021/11/12 01:44:05;;;;;;;15.47;10.60;;;3.40;97.40;;;;;;5055926;28;20689;-91
2021/11/12 01:46:45;;;;;;;23.53;11.20;;;3.40;97.40;;;;;;5055355;28;20642;-91
2021/11/12 01:49:17;;;;;;;11.47;10.27;;;3.50;97.20;;;;;;5045342;28;20205;-90
2021/11/12 01:51:50;;;;;;;25.87;11.10;;;3.50;97.40;;;;;;5054606;28;20257;-91
2021/11/12 01:54:41;;;;;;;18.57;10.83;;;3.30;97.30;;;;;;5051074;28;20291;-91
2021/11/12 01:59:56;;;;;;;23.33;10.70;;;3.20;97.60;;;;;;5030399;28;20571;-91
2021/11/12 02:02:25;;;;;;;12.67;9.97;;;3.30;97.60;;;;;;5057413;28;20232;-90
2021/11/12 02:04:52;;;;;;;18.70;10.87;;;3.40;97.60;;;;;;5059203;28;20299;-90
2021/11/12 02:07:20;;;;;;;23.97;10.93;;;3.40;97.30;;;;;;5056341;28;20225;-90
2021/11/12 02:09:48;;;;;;;23.10;11.00;;;3.50;97.40;;;;;;5056614;28;20225;-90
2021/11/12 02:12:23;;;;;;;24.40;11.73;;;3.30;97.30;;;;;;5047761;28;20313;-91
2021/11/12 02:14:51;;;;;;;43.87;12.20;;;3.30;97.50;;;;;;5054187;28;20197;-91
2021/11/12 02:17:19;;;;;;;30.37;12.23;;;3.40;97.50;;;;;;5066118;28;20229;-90
2021/11/12 02:19:52;;;;;;;24.63;11.53;;;3.30;97.70;;;;;;5037715;28;20198;-91
2021/11/12 02:22:22;;;;;;;27.33;11.83;;;3.30;97.80;;;;;;5055262;28;20218;-90
2021/11/12 02:24:52;;;;;;;31.20;11.43;;;3.20;97.70;;;;;;5055842;28;20202;-90
2021/11/12 02:27:23;;;;;;;23.00;12.03;;;3.10;98.00;;;;;;5055453;28;20308;-91
2021/11/12 02:29:52;;;;;;;28.10;12.27;;;3.00;98.10;;;;;;5055808;28;20202;-90
2021/11/12 02:32:21;;;;;;;69.77;12.67;;;2.90;98.30;;;;;;5064251;28;20214;-92
2021/11/12 02:34:51;;;;;;;41.80;12.60;;;2.80;98.50;;;;;;5055496;28;20236;-89
2021/11/12 02:37:20;;;;;;;60.93;12.50;;;2.60;98.60;;;;;;5056269;28;20673;-89
2021/11/12 02:39:48;;;;;;;55.07;12.70;;;2.60;99.00;;;;;;5054265;28;20197;-89
2021/11/12 02:42:15;;;;;;;57.73;12.67;;;2.70;99.30;;;;;;5055217;28;20232;-89
2021/11/12 02:44:43;;;;;;;40.20;12.03;;;2.70;99.40;;;;;;5055492;28;20224;-90
2021/11/12 02:47:12;;;;;;;33.53;11.50;;;2.70;99.50;;;;;;5055371;28;20233;-89
2021/11/12 02:49:39;;;;;;;36.97;12.03;;;2.80;99.80;;;;;;5058149;28;20361;-90
2021/11/12 02:52:08;;;;;;;22.93;11.43;;;2.80;99.70;;;;;;5047791;28;20586;-90
2021/11/12 02:54:37;;;;;;;35.10;12.10;;;2.90;99.80;;;;;;5050212;28;20609;-91
2021/11/12 02:57:06;;;;;;;40.80;11.60;;;2.90;99.50;;;;;;5048915;28;20279;-90
2021/11/12 02:59:33;;;;;;;48.17;12.27;;;2.90;99.40;;;;;;5055143;28;20206;-89
2021/11/12 03:02:03;;;;;;;62.80;12.87;;;2.80;99.20;;;;;;5040524;28;20245;-90
2021/11/12 03:04:31;;;;;;;50.40;12.33;;;2.80;99.30;;;;;;5056153;28;20684;-91
2021/11/12 03:07:03;;;;;;;83.40;12.93;;;2.80;99.50;;;;;;5053829;28;20688;-90
2021/11/12 03:09:32;;;;;;;21.70;10.77;;;2.90;99.70;;;;;;5062521;28;20201;-90
2021/11/12 03:12:05;;;;;;;36.07;11.03;;;3.00;99.80;;;;;;5054703;28;20689;-92
2021/11/12 03:14:32;;;;;;;18.60;11.03;;;3.10;99.40;;;;;;5056074;28;20202;-91
2021/11/12 03:16:59;;;;;;;39.50;11.40;;;3.20;99.30;;;;;;5059481;28;20221;-91
2021/11/12 03:19:29;;;;;;;38.57;11.40;;;3.20;99.00;;;;;;5053960;28;20565;-91
2021/11/12 03:22:01;;;;;;;29.23;11.30;;;3.20;98.80;;;;;;5057271;28;20218;-91
2021/11/12 03:24:31;;;;;;;13.83;10.63;;;3.20;98.90;;;;;;5054437;28;20216;-90
2021/11/12 03:27:10;;;;;;;19.70;11.40;;;3.20;98.80;;;;;;5054902;28;20305;-91
2021/11/12 04:02:50;;;;;;;26.67;11.03;;;3.10;98.40;;;;;;5024592;28;20700;-91
2021/11/12 04:19:21;;;;;;;23.80;9.97;;;3.00;97.70;;;;;;5052777;28;20212;-89
2021/11/12 04:41:22;;;;;;;27.57;9.90;;;3.00;97.30;;;;;;5048868;28;20201;-92
2021/11/12 04:50:00;;;;;;;28.37;10.00;;;3.00;97.50;;;;;;5065287;28;20208;-90
2021/11/12 05:12:25;;;;;;;17.80;9.30;;;2.90;97.90;;;;;;5049706;28;20340;-90
2021/11/12 05:26:24;;;;;;;55.00;9.77;;;2.60;98.40;;;;;;5056955;28;20216;-92
2021/11/12 05:51:36;;;;;;;28.17;9.67;;;2.60;98.00;;;;;;5055957;28;20274;-90
2021/11/12 05:56:54;;;;;;;22.27;9.43;;;2.60;98.00;;;;;;5073613;28;20256;-90
2021/11/12 05:59:23;;;;;;;65.37;10.03;;;2.60;98.10;;;;;;5051648;28;20215;-89
2021/11/12 06:01:51;;;;;;;21.50;9.70;;;2.50;98.10;;;;;;5053660;28;20301;-89
2021/11/12 06:04:19;;;;;;;57.00;10.23;;;2.50;98.40;;;;;;5054273;28;20229;-87
2021/11/12 06:06:46;;;;;;;23.63;8.40;;;2.50;98.50;;;;;;5054004;28;20222;-91
2021/11/12 06:09:13;;;;;;;33.90;10.47;;;2.50;98.60;;;;;;5054022;28;20206;-89
2021/11/12 06:11:40;;;;;;;38.63;9.50;;;2.60;98.30;;;;;;5053613;28;20225;-87
2021/11/12 06:14:10;;;;;;;35.53;9.10;;;2.60;98.30;;;;;;5051107;28;20200;-89
2021/11/12 06:16:37;;;;;;;26.17;9.47;;;2.60;98.30;;;;;;5058570;28;20755;-88
2021/11/12 06:19:05;;;;;;;42.27;10.47;;;2.60;98.20;;;;;;5057876;28;20206;-88
2021/11/12 06:21:33;;;;;;;14.20;9.10;;;2.50;98.30;;;;;;5053948;28;20207;-89
2021/11/12 06:24:00;;;;;;;64.20;10.47;;;2.60;98.60;;;;;;5049733;28;20198;-90
2021/11/12 06:26:27;;;;;;;17.70;9.10;;;2.70;98.40;;;;;;5050466;28;20226;-90
2021/11/12 06:28:55;;;;;;;21.63;9.13;;;2.60;98.20;;;;;;5054072;28;20289;-91
2021/11/12 06:31:27;;;;;;;31.00;10.30;;;2.60;98.30;;;;;;5056241;28;20309;-90
2021/11/12 06:33:55;;;;;;;23.53;10.10;;;2.60;98.40;;;;;;5062627;28;20205;-89
2021/11/12 06:36:24;;;;;;;39.57;10.77;;;2.60;98.30;;;;;;5050486;28;20210;-90
2021/11/12 06:38:51;;;;;;;26.77;9.80;;;2.50;98.40;;;;;;5052758;28;20244;-90
2021/11/12 06:41:28;;;;;;;22.43;9.97;;;2.60;98.70;;;;;;5046175;28;20198;-90
2021/11/12 06:43:57;;;;;;;17.90;9.83;;;2.70;98.80;;;;;;5063061;28;20197;-90
2021/11/12 06:49:23;;;;;;;14.23;9.37;;;2.90;98.40;;;;;;5048306;28;20292;-90
2021/11/12 06:51:50;;;;;;;18.57;9.50;;;3.00;98.20;;;;;;5040899;28;20232;-91
2021/11/12 06:54:17;;;;;;;9.33;7.93;;;3.00;98.10;;;;;;5040054;28;20249;-90
2021/11/12 06:56:44;;;;;;;8.73;7.80;;;3.00;98.10;;;;;;5047617;28;20222;-90
2021/11/12 06:59:12;;;;;;;10.23;7.80;;;3.00;97.80;;;;;;5049777;28;20195;-90
2021/11/12 07:04:21;;;;;;;11.60;7.43;;;3.20;97.30;;;;;;5046372;28;20304;-91
2021/11/12 07:06:48;;;;;;;10.00;7.73;;;3.20;97.20;;;;;;5046665;28;20236;-90
2021/11/12 07:09:15;;;;;;;9.70;7.77;;;3.10;97.30;;;;;;5040033;28;20198;-89
2021/11/12 07:11:42;;;;;;;24.43;8.30;;;3.10;97.30;;;;;;5040304;28;20226;-89
2021/11/12 07:14:09;;;;;;;9.07;7.60;;;3.10;97.50;;;;;;5059553;28;20468;-88
2021/11/12 07:16:36;;;;;;;8.63;7.50;;;3.10;97.20;;;;;;5059073;28;20238;-90
2021/11/12 07:19:05;;;;;;;13.93;7.90;;;3.20;97.30;;;;;;5048631;28;20198;-91
2021/11/12 07:21:32;;;;;;;11.73;7.67;;;3.10;96.90;;;;;;5049088;28;20237;-90
2021/11/12 07:24:01;;;;;;;11.77;7.77;;;3.20;97.00;;;;;;5050014;28;20201;-88
2021/11/12 07:26:27;;;;;;;16.43;8.40;;;3.30;96.80;;;;;;5038577;28;20229;-89
2021/11/12 07:28:54;;;;;;;12.83;8.33;;;3.40;96.60;;;;;;5046428;28;20255;-89
2021/11/12 07:31:21;;;;;;;11.47;8.40;;;3.40;96.60;;;;;;5043590;28;20232;-89
2021/11/12 07:33:48;;;;;;;16.17;8.50;;;3.40;96.80;;;;;;5049939;28;20190;-89
2021/11/12 07:36:20;;;;;;;18.77;9.73;;;3.60;96.90;;;;;;5055093;28;20206;-88
2021/11/12 07:38:50;;;;;;;24.93;8.77;;;3.50;96.40;;;;;;5058845;28;20610;-89
2021/11/12 07:41:27;;;;;;;33.63;9.23;;;3.50;96.40;;;;;;5052436;28;20230;-88
2021/11/12 07:44:19;;;;;;;15.30;8.57;;;3.40;96.40;;;;;;5053664;28;20753;-89
2021/11/12 07:46:57;;;;;;;25.10;9.40;;;3.30;96.70;;;;;;5052687;28;20665;-89
2021/11/12 07:49:24;;;;;;;24.17;9.20;;;3.20;97.00;;;;;;5044247;28;20206;-90
2021/11/12 07:51:53;;;;;;;18.13;8.53;;;3.20;96.90;;;;;;5044713;28;20239;-90
2021/11/12 07:54:20;;;;;;;33.73;8.87;;;3.20;97.00;;;;;;5048511;28;20228;-89
2021/11/12 07:56:48;;;;;;;25.00;8.97;;;3.10;97.10;;;;;;5041341;28;20226;-91
2021/11/12 07:59:15;;;;;;;14.70;9.10;;;3.00;97.30;;;;;;5048737;28;20559;-89
2021/11/12 08:01:42;;;;;;;10.50;8.40;;;3.00;97.70;;;;;;5053663;28;20244;-91
2021/11/12 08:04:10;;;;;;;11.00;8.17;;;3.10;97.40;;;;;;5040817;28;20293;-89
2021/11/12 08:06:37;;;;;;;17.77;8.43;;;3.20;97.30;;;;;;5041024;28;20226;-89
2021/11/12 08:09:08;;;;;;;24.33;8.90;;;3.20;97.30;;;;;;5046791;28;20198;-89
2021/11/12 08:11:39;;;;;;;24.27;8.67;;;3.20;97.30;;;;;;5050094;28;20456;-88
2021/11/12 08:14:10;;;;;;;14.53;8.03;;;3.20;97.30;;;;;;5049740;28;20648;-89
2021/11/12 08:19:27;;;;;;;24.40;8.23;;;3.50;96.70;;;;;;5045045;28;20217;-89
2021/11/12 08:22:00;;;;;;;18.53;8.83;;;3.50;96.70;;;;;;5054120;28;20230;-88
2021/11/12 08:24:42;;;;;;;9.27;7.60;;;3.50;96.30;;;;;;5044581;28;20222;-86
2021/11/12 08:27:30;;;;;;;33.93;9.30;;;3.70;96.60;;;;;;5045201;28;20304;-88
2021/11/12 08:30:08;;;;;;;25.40;8.47;;;3.70;96.20;;;;;;5045789;28;20202;-88
2021/11/12 08:32:53;;;;;;;25.93;8.90;;;3.60;96.00;;;;;;5043126;28;20299;-89
2021/11/12 08:35:32;;;;;;;11.07;7.57;;;3.60;96.10;;;;;;5043820;28;20214;-89
2021/11/12 08:38:08;;;;;;;18.63;9.00;;;3.60;96.30;;;;;;5045682;28;20221;-91
2021/11/12 08:40:47;;;;;;;11.77;7.63;;;3.80;96.40;;;;;;5047870;28;20221;-90
2021/11/12 08:43:16;;;;;;;12.57;7.90;;;4.00;95.70;;;;;;5042830;28;20229;-89
2021/11/12 08:45:46;;;;;;;18.63;7.70;;;4.00;95.50;;;;;;5045700;28;20306;-90
2021/11/12 08:48:16;;;;;;;22.80;7.40;;;4.00;95.00;;;;;;5047662;28;20267;-91
2021/11/12 08:50:44;;;;;;;30.90;8.50;;;4.00;95.20;;;;;;5043601;28;20202;-90
2021/11/12 08:53:13;;;;;;;24.03;7.83;;;4.00;95.10;;;;;;5046960;28;20593;-89
2021/11/12 08:55:44;;;;;;;12.33;7.83;;;4.10;94.90;;;;;;5050696;28;20653;-90
2021/11/12 08:58:12;;;;;;;31.97;9.27;;;4.10;94.90;;;;;;5050793;28;20217;-89
2021/11/12 09:00:40;;;;;;;10.80;7.90;;;4.20;95.00;;;;;;5034882;28;20206;-90
2021/11/12 09:03:08;;;;;;;11.73;8.17;;;4.30;94.90;;;;;;5047155;28;20224;-90
2021/11/12 09:05:35;;;;;;;9.00;7.83;;;4.30;95.30;;;;;;5053710;28;20658;-90
2021/11/12 09:08:03;;;;;;;12.77;7.87;;;4.30;94.90;;;;;;5043450;28;20585;-90
2021/11/12 09:10:31;;;;;;;10.17;7.77;;;4.20;94.90;;;;;;5043219;28;20206;-88
2021/11/12 09:13:06;;;;;;;9.60;8.03;;;4.40;95.00;;;;;;5047835;28;20563;-89
2021/11/12 09:15:33;;;;;;;9.20;7.30;;;4.30;94.90;;;;;;5044148;28;20214;-90
2021/11/12 09:18:04;;;;;;;14.83;7.53;;;4.40;95.00;;;;;;5050970;28;20233;-90
2021/11/12 09:20:31;;;;;;;9.67;8.27;;;4.40;94.90;;;;;;5049152;28;20209;-90
2021/11/12 09:23:00;;;;;;;12.37;8.27;;;4.50;95.00;;;;;;5049826;28;20248;-90
2021/11/12 09:25:28;;;;;;;9.40;7.93;;;4.50;95.00;;;;;;5055607;28;20634;-93
2021/11/12 09:27:55;;;;;;;12.33;8.23;;;4.50;95.00;;;;;;5050335;28;20225;-92
2021/11/12 09:30:26;;;;;;;10.23;7.87;;;4.70;95.00;;;;;;5053778;28;20588;-89
2021/11/12 09:32:54;;;;;;;9.53;8.17;;;4.50;95.20;;;;;;5048389;28;20226;-91
2021/11/12 09:35:23;;;;;;;11.13;8.57;;;4.70;94.90;;;;;;5050142;28;20217;-92
2021/11/12 09:37:51;;;;;;;9.50;8.00;;;4.70;94.70;;;;;;5051376;28;20304;-90
2021/11/12 09:40:20;;;;;;;11.33;8.07;;;4.70;94.50;;;;;;5059015;28;20212;-91
2021/11/12 09:42:48;;;;;;;12.53;8.70;;;4.80;94.70;;;;;;5055244;28;20322;-92
2021/11/12 09:45:16;;;;;;;17.47;9.33;;;4.80;94.60;;;;;;5054971;28;20256;-91
2021/11/12 09:47:47;;;;;;;9.67;8.23;;;4.80;94.40;;;;;;5053778;28;20226;-91
2021/11/12 09:50:17;;;;;;;9.50;8.27;;;5.00;94.00;;;;;;5049344;28;20258;-92
2021/11/12 09:52:44;;;;;;;13.27;7.53;;;5.00;94.30;;;;;;5054226;28;20232;-91
2021/11/12 09:55:12;;;;;;;9.17;8.03;;;5.10;94.20;;;;;;5052220;28;20672;-91
2021/11/12 09:57:40;;;;;;;10.57;8.37;;;5.00;94.10;;;;;;5052846;28;20222;-91
2021/11/12 10:00:10;;;;;;;8.87;7.97;;;5.00;94.30;;;;;;5051260;28;20205;-92
2021/11/12 10:02:41;;;;;;;9.43;8.23;;;4.90;94.40;;;;;;5053375;28;20257;-92
2021/11/12 10:05:12;;;;;;;12.87;8.53;;;4.90;95.00;;;;;;5046216;28;20198;-91
2021/11/12 10:07:39;;;;;;;8.50;7.50;;;4.90;95.10;;;;;;5054135;28;20222;-91
2021/11/12 10:10:09;;;;;;;10.73;8.40;;;5.00;95.10;;;;;;5053934;28;20652;-92
2021/11/12 10:12:37;;;;;;;9.53;7.87;;;4.90;95.00;;;;;;5055173;28;20628;-94
2021/11/12 10:15:15;;;;;;;10.73;8.10;;;5.20;95.10;;;;;;5057788;28;20208;-91
2021/11/12 10:17:42;;;;;;;8.93;7.87;;;5.40;95.20;;;;;;5053079;28;20217;-93
2021/11/12 10:20:14;;;;;;;25.87;21.30;;;5.60;94.00;;;;;;5047256;28;20288;-94
2021/11/12 10:22:43;;;;;;;11.17;9.07;;;5.60;93.80;;;;;;5056430;28;20244;-92
2021/11/12 10:25:11;;;;;;;9.07;8.17;;;5.60;93.90;;;;;;5052336;28;20225;-92
2021/11/12 10:27:43;;;;;;;9.97;8.57;;;5.80;93.80;;;;;;5046707;28;20226;-93
2021/11/12 10:32:59;;;;;;;11.27;8.53;;;5.80;93.60;;;;;;5042357;28;20592;-92
2021/11/12 10:35:30;;;;;;;10.37;8.13;;;5.90;93.00;;;;;;5067996;28;20285;-93
2021/11/12 10:38:08;;;;;;;9.60;8.60;;;5.90;93.10;;;;;;5054002;28;20225;-93
2021/11/12 10:40:34;;;;;;;11.53;8.90;;;5.90;93.20;;;;;;5054780;28;20201;-93
2021/11/12 10:43:02;;;;;;;10.23;9.07;;;5.90;93.30;;;;;;5054559;28;20233;-93
2021/11/12 10:45:30;;;;;;;9.70;8.70;;;6.10;93.10;;;;;;5055371;28;20644;-92
2021/11/12 10:47:59;;;;;;;11.37;8.40;;;6.10;93.20;;;;;;5055761;28;20701;-92
2021/11/12 10:50:35;;;;;;;12.90;9.00;;;6.10;92.90;;;;;;5056393;28;20197;-92
2021/11/12 10:53:08;;;;;;;9.93;8.27;;;6.10;93.30;;;;;;5056606;28;20227;-92
2021/11/12 10:55:37;;;;;;;11.73;8.70;;;6.00;93.10;;;;;;5056648;28;20747;-92
2021/11/12 10:58:06;;;;;;;14.33;9.23;;;6.00;93.10;;;;;;5047693;28;20244;-93
2021/11/12 11:00:39;;;;;;;13.67;9.60;;;5.80;93.60;;;;;;5056472;28;20209;-94
2021/11/12 11:08:35;;;;;;;12.10;9.50;;;5.80;93.80;;;;;;5039106;28;20284;-94
2021/11/12 11:29:27;;;;;;;12.40;9.27;;;5.90;93.90;;;;;;5048296;28;20205;-93
2021/11/12 11:31:56;;;;;;;12.83;8.77;;;6.10;93.80;;;;;;5048139;28;20228;-93
2021/11/12 11:34:43;;;;;;;12.20;8.43;;;6.20;93.70;;;;;;5052706;28;20205;-94
2021/11/12 11:46:14;;;;;;;9.93;8.68;;;6.00;94.30;;;;;;5070036;28;20194;-94
2021/11/12 11:55:01;;;;;;;10.60;8.20;;;6.20;94.20;;;;;;5050998;28;20208;-93
2021/11/12 11:57:49;;;;;;;12.70;8.80;;;6.20;93.80;;;;;;5043286;28;20230;-95
2021/11/12 12:00:34;;;;;;;12.00;9.23;;;6.30;93.80;;;;;;5048021;28;20209;-93
2021/11/12 12:03:34;;;;;;;11.18;9.05;;;6.10;93.90;;;;;;5050548;28;20702;-92
2021/11/12 12:06:22;;;;;;;12.60;9.23;;;6.00;94.10;;;;;;5061495;28;20239;-93
2021/11/12 12:09:28;;;;;;;10.80;8.90;;;5.90;94.80;;;;;;5057520;28;20208;-95
2021/11/12 12:14:42;;;;;;;11.93;8.83;;;6.00;95.10;;;;;;5072474;28;20557;-93
2021/11/12 12:17:38;;;;;;;10.93;9.13;;;5.90;94.80;;;;;;5038194;28;20246;-93
2021/11/12 12:38:42;;;;;;;12.13;8.93;;;5.90;95.30;;;;;;5041583;28;20229;-93
2021/11/12 13:25:44;;;;;;;15.37;9.93;;;5.70;96.00;;;;;;5033117;28;20209;-94
2021/11/12 13:31:12;;;;;;;11.60;8.90;;;5.60;96.60;;;;;;5031529;28;20209;-90
2021/11/12 13:33:42;;;;;;;11.27;9.30;;;5.50;96.40;;;;;;5057449;28;20217;-93
2021/11/12 13:36:20;;;;;;;12.03;9.23;;;5.70;96.30;;;;;;5058902;28;20237;-91
2021/11/12 13:39:06;;;;;;;12.60;8.97;;;5.80;96.20;;;;;;5054370;28;20621;-93
2021/11/12 13:41:36;;;;;;;13.67;9.60;;;5.80;95.90;;;;;;5044376;28;20229;-92
2021/11/12 13:44:08;;;;;;;12.43;9.30;;;5.90;95.60;;;;;;5054183;28;20209;-91
2021/11/12 13:46:48;;;;;;;14.20;10.33;;;5.90;95.50;;;;;;5050661;28;20226;-95
2021/11/12 13:49:52;;;;;;;14.87;9.80;;;5.70;95.90;;;;;;5062587;28;20661;-93
2021/11/12 13:55:15;;;;;;;14.30;10.07;;;5.70;96.10;;;;;;5046074;28;20218;-92
2021/11/12 13:57:57;;;;;;;12.83;9.93;;;5.40;96.60;;;;;;5053201;28;20692;-92
2021/11/12 14:00:28;;;;;;;12.77;9.10;;;5.40;97.40;;;;;;5053637;28;20197;-93
2021/11/12 14:06:14;;;;;;;10.00;8.83;;;5.50;97.20;;;;;;5052022;28;20213;-94
2021/11/12 14:11:26;;;;;;;15.03;10.07;;;5.60;96.90;;;;;;5066921;28;20205;-92
2021/11/12 14:14:24;;;;;;;12.30;9.20;;;5.50;96.80;;;;;;5065628;28;20249;-93
2021/11/12 14:38:31;;;;;;;15.13;10.23;;;5.70;96.70;;;;;;5054946;28;20237;-94
2021/11/12 14:41:53;;;;;;;16.10;10.30;;;5.80;96.50;;;;;;5033711;28;20255;-93
2021/11/12 14:47:31;;;;;;;13.90;10.33;;;5.90;96.00;;;;;;5063775;28;20221;-92
2021/11/12 14:52:40;;;;;;;14.27;10.47;;;5.60;96.50;;;;;;5058316;28;20308;-93
2021/11/12 14:55:10;;;;;;;16.10;10.37;;;5.50;96.90;;;;;;5062090;28;20220;-93
2021/11/12 14:57:39;;;;;;;13.40;10.63;;;5.40;97.20;;;;;;5057482;28;20299;-94
2021/11/12 15:03:10;;;;;;;12.63;10.87;;;5.40;97.70;;;;;;5054991;28;20224;-93
2021/11/12 15:09:05;;;;;;;12.27;9.87;;;5.40;97.80;;;;;;5043280;28;20252;-94
2021/11/12 15:11:33;;;;;;;21.73;11.87;;;5.60;97.50;;;;;;5055783;28;20597;-91
2021/11/12 15:14:06;;;;;;;14.13;11.07;;;5.60;97.00;;;;;;5056416;28;20209;-91
2021/11/12 15:16:35;;;;;;;15.83;11.20;;;5.60;97.50;;;;;;5053009;28;20201;-92
2021/11/12 15:19:05;;;;;;;15.47;12.27;;;5.60;97.30;;;;;;5047883;28;20194;-92
2021/11/12 15:21:52;;;;;;;18.80;12.23;;;5.60;97.20;;;;;;5053096;28;20190;-93
2021/11/12 15:24:28;;;;;;;14.90;11.67;;;5.70;97.00;;;;;;5054607;28;20588;-92
2021/11/12 15:27:10;;;;;;;14.60;11.70;;;5.70;97.00;;;;;;5052295;28;20571;-92
2021/11/12 15:29:39;;;;;;;13.53;10.50;;;5.50;97.20;;;;;;5058254;28;20225;-91
2021/11/12 15:32:17;;;;;;;13.57;10.93;;;5.40;97.60;;;;;;5055664;28;20221;-92
2021/11/12 15:34:48;;;;;;;13.73;10.40;;;5.50;97.70;;;;;;5055947;28;20265;-92
2021/11/12 15:37:22;;;;;;;20.90;10.83;;;5.60;97.40;;;;;;5050745;28;20203;-92
2021/11/12 15:39:57;;;;;;;12.97;10.57;;;5.50;97.10;;;;;;5049939;28;20252;-91
2021/11/12 15:45:11;;;;;;;14.67;10.87;;;5.40;97.80;;;;;;5040031;28;20194;-93
2021/11/12 15:47:43;;;;;;;17.73;11.33;;;5.50;98.20;;;;;;5049056;28;20229;-92
2021/11/12 15:50:13;;;;;;;13.87;10.80;;;5.40;98.10;;;;;;5043570;28;20199;-94
2021/11/12 15:53:09;;;;;;;14.50;11.27;;;5.40;98.30;;;;;;5060001;28;20202;-92
2021/11/12 15:55:45;;;;;;;13.97;10.77;;;5.30;98.30;;;;;;5051513;28;20198;-92
2021/11/12 16:01:27;;;;;;;15.43;10.97;;;5.30;98.90;;;;;;4974702;28;20188;-91
2021/11/12 16:09:45;;;;;;;25.03;10.87;;;5.30;98.90;;;;;;4908721;29;20203;-93
2021/11/12 16:12:31;;;;;;;15.53;10.40;;;5.30;98.80;;;;;;4954122;28;20698;-93
2021/11/12 16:15:08;;;;;;;20.37;10.67;;;5.30;98.80;;;;;;5031858;28;20617;-92
2021/11/12 16:17:48;;;;;;;13.33;10.73;;;5.40;98.80;;;;;;5053472;28;20229;-91
2021/11/12 16:25:53;;;;;;;32.00;12.50;;;5.20;98.80;;;;;;5042126;28;20202;-93
2021/11/12 16:28:24;;;;;;;49.07;12.20;;;5.20;99.10;;;;;;5051697;28;20229;-92
2021/11/12 16:30:55;;;;;;;23.43;11.80;;;5.20;99.30;;;;;;5053445;28;20275;-93
2021/11/12 16:42:21;;;;;;;37.83;11.77;;;5.40;99.50;;;;;;5049741;28;20229;-94
2021/11/12 16:47:50;;;;;;;19.70;11.37;;;5.40;99.10;;;;;;5051788;28;20240;-92
2021/11/12 16:53:16;;;;;;;19.20;12.17;;;5.40;99.50;;;;;;5053196;28;20221;-93
2021/11/12 17:01:40;;;;;;;16.87;12.57;;;5.60;99.40;;;;;;5044884;28;20202;-91
2021/11/12 17:04:14;;;;;;;17.97;12.63;;;5.70;99.20;;;;;;5050039;28;20206;-92
2021/11/12 17:06:45;;;;;;;18.20;12.50;;;5.70;99.10;;;;;;5051459;28;20531;-93
2021/11/12 17:12:17;;;;;;;14.87;11.53;;;5.70;98.80;;;;;;5039592;28;20221;-94
2021/11/12 17:14:53;;;;;;;17.47;11.57;;;5.70;98.80;;;;;;5042587;28;20206;-92
2021/11/12 17:20:20;;;;;;;18.13;12.50;;;5.60;99.20;;;;;;5029708;28;20229;-92
2021/11/12 17:47:32;;;;;;;13.63;10.50;;;5.50;99.10;;;;;;5057511;28;20709;-92
2021/11/12 17:50:07;;;;;;;17.40;10.03;;;5.60;99.10;;;;;;5055066;28;20194;-93
2021/11/12 17:52:58;;;;;;;15.73;9.53;;;5.60;98.50;;;;;;5055947;28;20248;-93
2021/11/12 18:03:41;;;;;;;16.20;9.80;;;8.80;92.10;;;;;;5052311;28;20402;-92
2021/11/12 21:44:41;;;;;;;33.77;14.13;;;5.50;98.80;;;;;;5058167;28;20331;-90
2021/11/12 21:47:09;;;;;;;22.03;13.37;;;5.30;99.20;;;;;;5060379;28;20748;-89
2021/11/12 21:49:39;;;;;;;18.63;12.77;;;5.20;99.40;;;;;;5058626;28;20284;-90
2021/11/12 21:52:06;;;;;;;23.63;14.17;;;5.30;99.50;;;;;;5056693;28;20303;-90
2021/11/12 21:54:35;;;;;;;18.90;13.63;;;5.40;99.30;;;;;;5059204;28;20285;-90
2021/11/12 21:57:02;;;;;;;20.07;12.97;;;5.50;99.10;;;;;;5055361;28;20596;-90
2021/11/12 21:59:30;;;;;;;36.37;13.87;;;5.50;99.10;;;;;;5059508;28;20215;-90
2021/11/12 22:01:58;;;;;;;17.80;12.20;;;5.50;98.80;;;;;;5056069;28;20305;-90
2021/11/12 22:04:25;;;;;;;23.60;14.17;;;5.40;98.80;;;;;;5061350;28;20212;-90
2021/11/12 22:06:53;;;;;;;19.53;14.10;;;5.40;98.70;;;;;;5056070;28;20309;-89
2021/11/12 22:09:21;;;;;;;18.93;13.03;;;5.30;99.00;;;;;;5054071;28;20685;-90
2021/11/12 22:11:51;;;;;;;21.13;12.20;;;5.30;99.20;;;;;;5057862;28;20236;-90
2021/11/12 22:14:18;;;;;;;17.53;12.43;;;5.40;98.90;;;;;;5056080;28;20212;-90
2021/11/12 22:16:45;;;;;;;14.37;10.87;;;5.40;98.80;;;;;;5056179;28;20715;-91
2021/11/12 22:19:12;;;;;;;16.87;12.03;;;5.40;98.50;;;;;;5062126;28;20198;-89
2021/11/12 22:21:39;;;;;;;16.50;11.80;;;5.40;98.40;;;;;;5057011;28;20216;-90
2021/11/12 22:24:11;;;;;;;18.93;12.87;;;5.30;98.50;;;;;;5051779;28;20627;-90
2021/11/12 22:26:40;;;;;;;16.40;12.13;;;5.20;98.70;;;;;;5056294;28;20226;-90
2021/11/12 22:29:09;;;;;;;14.63;11.17;;;5.20;98.90;;;;;;5056716;28;20665;-89
2021/11/12 22:31:36;;;;;;;15.87;11.47;;;5.30;98.80;;;;;;5056217;28;20232;-90
2021/11/12 22:34:03;;;;;;;17.73;11.73;;;5.30;98.50;;;;;;5055831;28;20213;-91
2021/11/12 22:36:30;;;;;;;14.40;11.10;;;5.30;98.70;;;;;;5058647;28;20688;-91
2021/11/12 22:38:57;;;;;;;12.70;9.80;;;5.40;98.30;;;;;;5060019;28;20712;-90
2021/11/12 22:41:24;;;;;;;11.33;9.90;;;5.40;98.30;;;;;;5052447;28;20202;-90
2021/11/12 22:43:58;;;;;;;13.00;9.97;;;5.40;98.20;;;;;;5055663;28;20228;-90
2021/11/12 22:46:29;;;;;;;16.47;10.67;;;5.40;98.10;;;;;;5055355;28;20252;-90
2021/11/12 22:48:56;;;;;;;13.73;10.40;;;5.20;98.30;;;;;;5056196;28;20232;-90
2021/11/12 22:51:23;;;;;;;24.80;11.30;;;5.20;98.50;;;;;;5053219;28;20225;-90
2021/11/12 22:53:50;;;;;;;15.70;10.47;;;5.10;98.80;;;;;;5053685;28;20248;-90
2021/11/12 22:56:17;;;;;;;16.43;11.13;;;5.10;99.20;;;;;;5052538;28;20204;-92
2021/11/12 22:58:44;;;;;;;14.83;11.43;;;5.30;99.20;;;;;;5051634;28;20232;-92
2021/11/12 23:01:15;;;;;;;14.43;10.53;;;5.30;99.30;;;;;;5055292;28;20208;-91
2021/11/12 23:03:43;;;;;;;14.27;10.73;;;5.40;99.00;;;;;;5051114;28;20226;-90
2021/11/12 23:06:10;;;;;;;13.47;10.93;;;5.50;99.10;;;;;;5049784;28;20210;-90
2021/11/12 23:08:38;;;;;;;18.40;10.80;;;5.50;98.70;;;;;;5052007;28;20222;-91